Time;durP1;ratioP1;P1;durP2;ratioP2;P2;SDS_P1;SDS_P2;PMS_P1;PMS_P2;Temp;Humidity;BMP_temperature;BMP_pressure;BME280_temperature;BME280_humidity;BME280_pressure;Samples;Min_cycle;Max_cycle;Signal;HPM_P1;HPM_P2
2022/07/14 00:01:00;;;;;;;13.93;6.22;;;16.90;99.90;17.00;98132.00;;;;5004377;28;87843;-61
2022/07/14 00:03:26;;;;;;;16.10;5.80;;;16.90;99.90;17.10;98126.00;;;;5010437;28;89326;-61
2022/07/14 00:05:52;;;;;;;15.00;5.05;;;16.90;99.90;17.10;98121.00;;;;5008968;28;87131;-61
2022/07/14 00:08:18;;;;;;;14.30;5.40;;;16.90;99.90;17.10;98116.00;;;;4993237;28;87548;-60
2022/07/14 00:10:45;;;;;;;10.85;5.43;;;17.00;99.90;17.10;98102.00;;;;5008269;28;87229;-60
2022/07/14 00:13:12;;;;;;;13.23;5.32;;;17.00;99.90;17.10;98112.00;;;;4967886;28;87007;-60
2022/07/14 00:15:39;;;;;;;12.95;4.93;;;17.00;99.90;17.10;98100.00;;;;4974219;28;86940;-60
2022/07/14 00:18:05;;;;;;;12.48;5.30;;;16.90;99.90;17.10;98112.00;;;;5008958;28;87693;-60
2022/07/14 00:20:31;;;;;;;16.00;5.80;;;17.00;99.90;17.20;98097.00;;;;4995231;28;87344;-60
2022/07/14 00:22:57;;;;;;;20.95;5.65;;;17.10;99.90;17.30;98102.00;;;;5002094;28;87408;-60
2022/07/14 00:25:25;;;;;;;13.75;5.10;;;17.20;99.90;17.40;98104.00;;;;5019868;28;87610;-60
2022/07/14 00:27:52;;;;;;;12.82;5.32;;;17.30;99.90;17.50;98095.00;;;;5011413;28;89565;-60
2022/07/14 00:30:20;;;;;;;13.80;5.70;;;17.40;99.90;17.60;98097.00;;;;4986839;28;89389;-60
2022/07/14 00:32:47;;;;;;;12.25;4.93;;;17.50;99.90;17.60;98090.00;;;;4993536;28;87128;-60
2022/07/14 00:35:15;;;;;;;14.43;5.55;;;17.50;99.90;17.70;98093.00;;;;4987552;28;87226;-61
2022/07/14 00:37:41;;;;;;;14.32;5.70;;;17.60;99.90;17.70;98099.00;;;;5002726;28;87692;-61
2022/07/14 00:40:09;;;;;;;14.10;5.90;;;17.60;99.90;17.80;98098.00;;;;4994942;28;87498;-62
2022/07/14 00:42:45;;;;;;;13.93;5.40;;;17.60;99.90;17.80;98088.00;;;;5004332;28;87057;-61
2022/07/14 00:45:19;;;;;;;23.38;9.35;;;17.70;99.90;17.80;98084.00;;;;4979628;28;86358;-61
2022/07/14 00:47:47;;;;;;;22.40;11.02;;;17.70;99.90;17.90;98077.00;;;;5004786;28;88597;-61
2022/07/14 00:50:16;;;;;;;21.73;11.10;;;17.70;99.90;17.90;98065.00;;;;5008067;28;88578;-62
2022/07/14 00:52:45;;;;;;;17.90;9.68;;;17.80;99.90;18.00;98068.00;;;;4990587;28;87964;-62
2022/07/14 00:55:12;;;;;;;30.80;11.48;;;17.80;99.90;18.00;98066.00;;;;4988056;28;87015;-62
2022/07/14 00:57:38;;;;;;;26.73;10.60;;;17.80;99.90;17.90;98062.00;;;;5006572;28;87450;-62
2022/07/14 01:00:09;;;;;;;20.77;10.40;;;17.80;99.90;17.90;98067.00;;;;4971910;28;87624;-60
2022/07/14 01:02:36;;;;;;;22.40;9.73;;;17.80;99.90;17.90;98063.00;;;;5006384;28;87085;-61
2022/07/14 01:05:04;;;;;;;18.77;9.45;;;17.80;99.90;17.90;98059.00;;;;5008479;28;87363;-61
2022/07/14 01:07:31;;;;;;;16.73;7.95;;;17.80;99.90;17.90;98050.00;;;;5010761;28;88664;-61
2022/07/14 01:09:57;;;;;;;11.20;5.13;;;17.80;99.90;18.00;98042.00;;;;4992192;28;86285;-61
2022/07/14 01:12:24;;;;;;;13.30;4.97;;;17.90;99.90;18.10;98044.00;;;;4988603;28;86992;-61
2022/07/14 01:14:50;;;;;;;7.57;4.75;;;18.00;99.90;18.20;98038.00;;;;5004401;28;87109;-61
2022/07/14 01:17:17;;;;;;;11.32;5.32;;;18.00;99.90;18.20;98049.00;;;;5003861;28;88628;-61
2022/07/14 01:19:43;;;;;;;7.43;3.47;;;18.00;99.90;18.20;98044.00;;;;5009067;28;88190;-62
2022/07/14 01:22:09;;;;;;;8.73;2.58;;;18.10;99.90;18.30;98034.00;;;;5000785;28;87354;-59
2022/07/14 01:24:35;;;;;;;7.45;3.50;;;18.20;99.90;18.50;98040.00;;;;5004249;28;87083;-61
2022/07/14 01:27:02;;;;;;;8.48;3.47;;;18.30;99.90;18.50;98036.00;;;;4991640;28;87661;-61
2022/07/14 01:29:29;;;;;;;6.15;2.60;;;18.30;99.90;18.50;98038.00;;;;4992832;28;87381;-61
2022/07/14 01:31:56;;;;;;;9.30;3.80;;;18.30;99.90;18.50;98041.00;;;;5008585;28;87008;-62
2022/07/14 01:34:22;;;;;;;8.32;4.28;;;18.40;99.90;18.50;98041.00;;;;4996214;28;86464;-61
2022/07/14 01:36:49;;;;;;;11.73;3.95;;;18.30;99.90;18.50;98049.00;;;;4993912;28;87386;-61
2022/07/14 01:39:15;;;;;;;9.07;3.38;;;18.30;99.90;18.40;98047.00;;;;4967771;28;88572;-61
2022/07/14 01:41:43;;;;;;;7.07;3.03;;;18.20;99.90;18.40;98047.00;;;;4992533;28;87962;-61
2022/07/14 01:44:10;;;;;;;9.20;3.45;;;18.20;99.90;18.50;98037.00;;;;4974285;28;86992;-61
2022/07/14 01:46:37;;;;;;;11.57;4.45;;;18.30;99.90;18.40;98043.00;;;;4987577;28;88835;-61
2022/07/14 01:49:07;;;;;;;11.55;4.43;;;18.20;99.90;18.30;98034.00;;;;4991266;28;87665;-62
2022/07/14 01:51:33;;;;;;;7.50;3.40;;;18.10;99.90;18.20;98052.00;;;;4995659;28;86858;-61
2022/07/14 01:54:01;;;;;;;9.88;3.50;;;18.00;99.90;18.30;98051.00;;;;4993452;28;86984;-62
2022/07/14 01:56:27;;;;;;;16.42;4.75;;;18.10;99.90;18.30;98053.00;;;;5006721;28;87874;-62
2022/07/14 01:58:54;;;;;;;7.38;4.63;;;18.10;99.90;18.40;98077.00;;;;4987988;28;88564;-61
2022/07/14 02:01:39;;;;;;;12.55;4.70;;;18.20;99.90;18.30;98113.00;;;;4980317;28;87178;-60
2022/07/14 02:04:17;;;;;;;9.13;5.28;;;18.00;99.90;17.90;98122.00;;;;5001006;28;87503;-61
2022/07/14 02:06:55;;;;;;;17.52;6.15;;;17.70;99.90;17.60;98111.00;;;;5001201;28;89705;-61
2022/07/14 02:12:39;;;;;;;29.15;7.40;;;17.10;99.90;17.20;98128.00;;;;4974125;28;87784;-60
2022/07/14 02:15:09;;;;;;;19.48;7.22;;;17.10;99.90;17.20;98115.00;;;;4977664;28;87462;-61
2022/07/14 02:17:37;;;;;;;21.33;6.38;;;17.00;99.90;17.10;98111.00;;;;4974299;28;87018;-61
2022/07/14 02:20:08;;;;;;;17.65;6.75;;;17.00;99.90;17.10;98119.00;;;;4974932;28;87972;-62
2022/07/14 02:22:35;;;;;;;14.57;6.07;;;16.90;99.90;17.20;98122.00;;;;4959937;28;88182;-61
2022/07/14 02:25:05;;;;;;;15.05;6.43;;;17.00;99.90;17.20;98114.00;;;;4985273;28;86258;-62
2022/07/14 02:27:31;;;;;;;17.50;6.03;;;17.00;99.90;17.20;98117.00;;;;4984854;28;89134;-63
2022/07/14 02:29:57;;;;;;;18.45;6.30;;;17.00;99.90;17.20;98118.00;;;;5002172;28;87205;-62
2022/07/14 02:32:24;;;;;;;23.30;6.00;;;16.90;99.90;17.20;98130.00;;;;4982023;28;87849;-62
2022/07/14 02:34:52;;;;;;;17.65;6.03;;;17.00;99.90;17.20;98133.00;;;;4995935;28;87456;-63
2022/07/14 02:37:18;;;;;;;15.48;6.80;;;17.00;99.90;17.20;98127.00;;;;5001989;28;88595;-63
2022/07/14 02:39:44;;;;;;;12.68;5.07;;;17.00;99.90;17.20;98133.00;;;;5001609;28;87383;-64
2022/07/14 02:42:10;;;;;;;10.63;3.97;;;17.00;99.90;17.20;98123.00;;;;5003513;28;87327;-63
2022/07/14 02:44:39;;;;;;;8.45;3.88;;;17.00;99.90;17.30;98113.00;;;;4985122;28;87019;-62
2022/07/14 02:47:05;;;;;;;8.77;3.42;;;17.10;99.90;17.30;98119.00;;;;4985368;28;88610;-63
2022/07/14 02:49:34;;;;;;;8.02;3.88;;;17.10;99.90;17.30;98102.00;;;;4977198;28;91045;-63
2022/07/14 02:52:00;;;;;;;8.05;2.85;;;17.10;99.90;17.20;98088.00;;;;4976093;28;87332;-62
2022/07/14 02:54:29;;;;;;;6.32;2.45;;;17.00;99.90;17.30;98078.00;;;;4997182;28;88060;-63
2022/07/14 02:56:56;;;;;;;7.57;2.72;;;17.10;99.90;17.20;98080.00;;;;4983738;28;91453;-62
2022/07/14 02:59:22;;;;;;;8.13;2.63;;;17.00;99.90;17.00;98080.00;;;;5002762;28;88354;-62
2022/07/14 03:01:50;;;;;;;5.85;2.50;;;16.90;99.90;16.80;98066.00;;;;5011974;28;86863;-63
2022/07/14 03:04:21;;;;;;;11.43;2.50;;;16.70;99.90;16.70;98069.00;;;;4971557;28;87110;-63
2022/07/14 03:06:53;;;;;;;6.32;2.63;;;16.60;99.90;16.60;98078.00;;;;4984588;28;88635;-64
2022/07/14 03:09:26;;;;;;;10.20;3.03;;;16.60;99.90;16.60;98088.00;;;;4957912;28;87435;-63
2022/07/14 03:11:52;;;;;;;6.85;3.30;;;16.60;99.90;16.60;98093.00;;;;4979271;28;87067;-64
2022/07/14 03:14:18;;;;;;;11.52;3.70;;;16.50;99.90;16.50;98086.00;;;;4992685;28;86183;-64
2022/07/14 03:16:45;;;;;;;8.70;3.33;;;16.50;99.90;16.50;98079.00;;;;4962437;28;87811;-64
2022/07/14 03:19:13;;;;;;;7.75;3.33;;;16.30;99.90;16.40;98059.00;;;;4959860;28;87225;-64
2022/07/14 03:21:44;;;;;;;7.28;3.15;;;16.30;99.90;16.40;98040.00;;;;4971058;28;88113;-64
2022/07/14 03:24:13;;;;;;;5.10;2.53;;;16.30;99.90;16.30;98034.00;;;;4990180;28;87336;-63
2022/07/14 03:26:39;;;;;;;6.18;2.40;;;16.30;99.90;16.30;98029.00;;;;4978557;28;88262;-62
2022/07/14 03:29:07;;;;;;;5.40;2.55;;;16.30;99.90;16.20;98027.00;;;;4975622;28;87190;-66
2022/07/14 03:31:34;;;;;;;3.83;2.38;;;16.20;99.90;16.30;98013.00;;;;4960430;28;87164;-63
2022/07/14 03:34:02;;;;;;;10.15;2.65;;;16.30;99.90;16.40;98007.00;;;;4989920;28;87276;-64
2022/07/14 03:36:29;;;;;;;5.07;2.03;;;16.40;99.90;16.40;98006.00;;;;4981197;28;87901;-62
2022/07/14 03:38:58;;;;;;;4.97;2.15;;;16.40;99.90;16.40;98013.00;;;;4990501;28;87350;-64
2022/07/14 03:41:25;;;;;;;4.60;1.98;;;16.50;99.90;16.70;98011.00;;;;5012935;28;87315;-63
2022/07/14 03:43:51;;;;;;;6.25;1.98;;;16.70;99.90;16.90;98009.00;;;;4993153;28;87038;-63
2022/07/14 03:46:19;;;;;;;2.67;1.80;;;17.10;99.90;17.10;98005.00;;;;4992566;28;88898;-63
2022/07/14 03:48:56;;;;;;;5.15;2.15;;;17.30;99.90;17.30;98010.00;;;;4995721;28;89215;-63
2022/07/14 03:51:22;;;;;;;4.88;2.25;;;17.30;99.90;17.60;98004.00;;;;4988549;28;87081;-63
2022/07/14 03:53:49;;;;;;;4.15;1.80;;;17.50;99.90;17.70;98004.00;;;;4980290;28;87030;-63
2022/07/14 03:56:15;;;;;;;2.88;1.60;;;17.80;99.90;17.90;98007.00;;;;4971584;28;87596;-64
2022/07/14 03:58:44;;;;;;;6.22;2.70;;;17.80;99.90;18.10;98003.00;;;;4973575;28;87275;-62
2022/07/14 04:01:13;;;;;;;7.05;3.00;;;17.90;99.90;18.00;98014.00;;;;4973572;28;87988;-64
2022/07/14 04:03:41;;;;;;;7.03;3.30;;;17.90;99.90;18.10;98010.00;;;;4976455;28;87115;-64
2022/07/14 04:06:07;;;;;;;9.32;3.22;;;17.90;99.90;18.00;98008.00;;;;4973647;28;88193;-63
2022/07/14 04:08:34;;;;;;;7.43;3.80;;;17.80;99.90;18.00;98023.00;;;;4974991;28;87542;-62
2022/07/14 04:11:03;;;;;;;10.38;3.28;;;17.80;99.90;18.00;98012.00;;;;4975748;28;87952;-64
2022/07/14 04:13:32;;;;;;;9.73;3.53;;;17.80;99.90;17.90;98018.00;;;;4988565;28;87115;-63
2022/07/14 04:15:58;;;;;;;7.47;3.10;;;17.70;99.90;17.90;98003.00;;;;4967330;28;87906;-63
2022/07/14 04:18:26;;;;;;;5.93;3.17;;;17.70;99.90;17.80;97985.00;;;;4971913;28;87102;-64
2022/07/14 04:20:54;;;;;;;4.88;2.53;;;17.70;99.90;17.60;97988.00;;;;4971905;28;87091;-62
2022/07/14 04:23:23;;;;;;;6.60;2.00;;;17.50;99.90;17.50;97969.00;;;;4992025;28;87637;-63
2022/07/14 04:25:50;;;;;;;3.30;2.10;;;17.50;99.90;17.50;97966.00;;;;4980083;28;87589;-63
2022/07/14 04:28:17;;;;;;;3.20;2.17;;;17.40;99.90;17.40;97971.00;;;;4990139;28;87902;-63
2022/07/14 04:30:44;;;;;;;7.20;2.70;;;17.50;99.90;17.50;97971.00;;;;4982178;28;87315;-63
2022/07/14 04:33:10;;;;;;;7.60;2.58;;;17.50;99.90;17.60;97963.00;;;;4985620;28;87104;-63
2022/07/14 04:35:38;;;;;;;5.40;2.58;;;17.70;99.90;17.70;97965.00;;;;4972503;28;89050;-63
2022/07/14 04:38:04;;;;;;;8.02;3.05;;;17.60;99.90;17.90;97956.00;;;;4972826;28;88291;-63
2022/07/14 04:40:38;;;;;;;4.07;2.70;;;18.00;99.90;18.10;97960.00;;;;4972945;28;87423;-62
2022/07/14 04:43:05;;;;;;;6.32;3.08;;;18.20;99.90;18.30;97960.00;;;;4969234;28;87014;-62
2022/07/14 04:45:33;;;;;;;6.93;2.78;;;18.40;99.90;18.60;97965.00;;;;4974891;28;88253;-63
2022/07/14 04:47:59;;;;;;;7.72;3.42;;;18.40;99.90;18.70;97968.00;;;;4996768;28;86979;-63
2022/07/14 04:53:10;;;;;;;8.07;3.92;;;18.90;99.90;19.10;97973.00;;;;4972829;28;86247;-62
2022/07/14 04:55:51;;;;;;;10.20;4.23;;;18.90;99.90;19.40;97963.00;;;;4957471;28;87759;-61
2022/07/14 04:58:45;;;;;;;7.93;3.70;;;19.40;99.90;19.70;97964.00;;;;4979517;28;87463;-62
2022/07/14 05:01:12;;;;;;;11.98;4.18;;;19.70;99.90;20.00;97967.00;;;;4996234;28;87962;-61
2022/07/14 05:03:42;;;;;;;8.37;4.77;;;20.10;99.90;20.40;97965.00;;;;4967780;28;87272;-61
2022/07/14 05:06:10;;;;;;;9.48;5.63;;;20.30;99.90;20.60;97975.00;;;;4993047;28;87635;-61
2022/07/14 05:08:36;;;;;;;9.88;5.55;;;20.50;99.90;20.80;97955.00;;;;4994696;28;87517;-61
2022/07/14 05:11:07;;;;;;;9.63;4.68;;;20.50;99.90;20.80;97947.00;;;;4973158;28;87426;-63
2022/07/14 05:13:34;;;;;;;10.40;4.90;;;;;20.90;97948.00;;;;4987764;28;87044;-61
2022/07/14 05:16:00;;;;;;;11.15;4.72;;;20.60;99.90;21.00;97947.00;;;;4970665;28;87784;-61
2022/07/14 05:18:27;;;;;;;12.27;5.35;;;20.70;99.90;21.10;97947.00;;;;4998393;28;88632;-61
2022/07/14 05:20:53;;;;;;;9.48;4.70;;;20.70;99.90;21.00;97942.00;;;;4982119;28;86959;-60
2022/07/14 05:23:19;;;;;;;8.65;4.20;;;20.70;99.90;21.10;97941.00;;;;5010009;28;87097;-62
2022/07/14 05:25:45;;;;;;;11.80;5.13;;;20.70;99.90;21.10;97939.00;;;;4994820;28;89671;-61
2022/07/14 05:28:12;;;;;;;12.95;4.72;;;20.40;99.90;20.80;97934.00;;;;4986024;28;88313;-62
2022/07/14 05:30:48;;;;;;;13.52;4.63;;;20.40;99.90;20.70;97935.00;;;;5006436;28;87739;-62
2022/07/14 05:33:14;;;;;;;12.18;5.43;;;20.40;99.90;20.70;97931.00;;;;4973138;28;87164;-62
2022/07/14 05:35:41;;;;;;;12.98;4.93;;;20.40;99.90;20.80;97924.00;;;;4967777;28;87714;-62
2022/07/14 05:38:08;;;;;;;10.35;4.82;;;20.40;99.90;20.70;97929.00;;;;4959597;28;87194;-62
2022/07/14 05:40:35;;;;;;;10.55;4.28;;;20.40;99.90;20.80;97931.00;;;;4967302;28;87319;-62
2022/07/14 05:43:02;;;;;;;14.23;4.88;;;20.50;99.90;20.80;97929.00;;;;4977221;28;86175;-63
2022/07/14 05:45:29;;;;;;;14.05;5.13;;;20.50;99.90;20.80;97923.00;;;;4976399;28;87638;-63
2022/07/14 05:47:55;;;;;;;13.40;4.55;;;20.50;99.90;20.80;97927.00;;;;4966607;28;86974;-62
2022/07/14 05:50:21;;;;;;;14.38;4.82;;;20.60;99.90;20.90;97928.00;;;;4981651;28;87993;-62
2022/07/14 05:52:48;;;;;;;12.00;4.53;;;20.60;99.90;21.00;97929.00;;;;4982987;28;86994;-62
2022/07/14 05:55:15;;;;;;;10.73;4.40;;;20.70;99.90;21.10;97923.00;;;;4975890;28;87579;-62
2022/07/14 05:57:42;;;;;;;11.27;4.43;;;20.70;99.90;21.00;97927.00;;;;4976119;28;87080;-62
2022/07/14 06:00:10;;;;;;;11.52;3.90;;;20.70;99.90;21.00;97931.00;;;;4982059;28;86990;-62
2022/07/14 06:02:44;;;;;;;11.93;3.58;;;20.70;99.90;21.10;97928.00;;;;4989924;28;86968;-62
2022/07/14 06:05:15;;;;;;;9.40;3.80;;;20.80;99.90;21.10;97923.00;;;;4987797;28;87752;-61
2022/07/14 06:07:42;;;;;;;10.43;3.80;;;20.80;99.90;21.20;97927.00;;;;5016271;28;87346;-62
2022/07/14 06:10:11;;;;;;;11.55;4.53;;;21.00;99.90;21.40;97933.00;;;;4999784;28;87042;-61
2022/07/14 06:12:38;;;;;;;7.07;3.45;;;21.00;99.90;21.70;97934.00;;;;4993919;28;87033;-62
2022/07/14 06:15:07;;;;;;;9.95;3.45;;;21.80;99.90;22.30;97924.00;;;;5002223;28;88753;-61
2022/07/14 06:17:35;;;;;;;11.57;3.88;;;22.60;99.90;23.20;97927.00;;;;4996060;28;88109;-61
2022/07/14 06:20:08;;;;;;;10.70;3.35;;;23.50;99.90;24.20;97921.00;;;;4992267;28;87031;-62
2022/07/14 06:22:40;;;;;;;9.48;3.45;;;24.40;99.90;25.40;97936.00;;;;4986315;28;87248;-62
2022/07/14 06:25:07;;;;;;;9.88;3.17;;;24.50;99.90;25.80;97936.00;;;;4985366;28;87587;-63
2022/07/14 06:27:33;;;;;;;8.88;3.83;;;24.80;99.90;25.80;97928.00;;;;4998395;28;88365;-63
2022/07/14 06:30:05;;;;;;;8.02;3.30;;;24.80;99.90;25.50;97935.00;;;;4983350;28;86974;-61
2022/07/14 06:32:31;;;;;;;8.00;3.55;;;24.70;99.90;25.40;97936.00;;;;4994504;28;86311;-62
2022/07/14 06:34:59;;;;;;;9.38;3.70;;;24.50;99.90;25.10;97923.00;;;;4981588;28;86997;-60
2022/07/14 06:37:26;;;;;;;11.43;3.60;;;24.40;99.90;24.90;97927.00;;;;4986448;28;87120;-60
2022/07/14 06:39:52;;;;;;;9.30;3.60;;;24.50;99.90;24.90;97923.00;;;;4996908;28;88087;-61
2022/07/14 06:42:19;;;;;;;8.90;3.65;;;24.10;99.90;24.60;97936.00;;;;4992605;28;87053;-61
2022/07/14 06:45:21;;;;;;;9.63;3.08;;;;;24.40;97929.00;;;;4948791;28;87106;-61
2022/07/14 06:47:48;;;;;;;13.20;2.95;;;23.50;99.90;24.00;97925.00;;;;4965009;28;88698;-61
2022/07/14 06:50:14;;;;;;;6.90;2.30;;;23.40;99.90;23.90;97929.00;;;;4999051;28;87023;-61
2022/07/14 06:52:41;;;;;;;11.88;2.83;;;23.20;99.90;23.70;97937.00;;;;4998057;28;87200;-61
2022/07/14 06:55:08;;;;;;;7.25;2.85;;;23.10;99.90;23.60;97929.00;;;;4991531;28;88133;-62
2022/07/14 06:57:35;;;;;;;11.15;3.35;;;22.70;99.90;23.30;97938.00;;;;5006131;28;88576;-61
2022/07/14 07:00:05;;;;;;;13.35;3.08;;;22.60;99.90;23.00;97922.00;;;;4989222;28;87006;-60
2022/07/14 07:02:31;;;;;;;12.38;3.30;;;22.40;99.90;22.80;97907.00;;;;4969589;28;87142;-60
2022/07/14 07:07:42;;;;;;;11.13;3.70;;;22.00;99.90;22.30;97932.00;;;;4989880;28;88673;-63
2022/07/14 07:10:10;;;;;;;10.32;3.53;;;22.00;99.90;21.90;97932.00;;;;4976665;28;87127;-61
2022/07/14 07:12:37;;;;;;;6.15;3.40;;;21.20;99.90;21.50;97933.00;;;;4979139;28;87534;-61
2022/07/14 07:15:05;;;;;;;7.32;3.63;;;21.00;99.90;21.10;97929.00;;;;4984368;28;87662;-61
2022/07/14 07:17:31;;;;;;;9.45;3.38;;;20.70;99.90;20.70;97947.00;;;;4990526;28;88463;-61
2022/07/14 07:19:57;;;;;;;6.55;3.17;;;20.20;99.90;20.30;97952.00;;;;4999917;28;86933;-61
2022/07/14 07:22:23;;;;;;;7.80;3.25;;;20.20;99.90;19.90;97943.00;;;;4982911;28;86312;-61
2022/07/14 07:24:49;;;;;;;7.82;3.72;;;19.40;99.90;19.50;97925.00;;;;4986250;28;87626;-61
2022/07/14 07:27:15;;;;;;;11.60;3.40;;;19.40;99.90;19.10;97913.00;;;;4980222;28;87702;-62
2022/07/14 07:29:42;;;;;;;9.23;3.38;;;18.50;99.90;18.60;97882.00;;;;4978517;28;88305;-61
2022/07/14 07:32:08;;;;;;;10.63;3.75;;;18.30;99.90;18.30;97878.00;;;;4995523;28;87001;-60
2022/07/14 07:34:36;;;;;;;6.75;3.90;;;18.30;99.90;18.10;97879.00;;;;4968705;28;88791;-60
2022/07/14 07:37:04;;;;;;;10.07;4.15;;;18.00;99.90;18.00;97887.00;;;;4965616;28;87238;-62
2022/07/14 07:39:31;;;;;;;8.35;3.80;;;18.00;99.90;18.00;97874.00;;;;4979869;28;87040;-62
2022/07/14 07:42:00;;;;;;;8.43;4.25;;;18.20;99.90;18.20;97867.00;;;;4961993;28;88900;-61
2022/07/14 07:44:30;;;;;;;7.38;3.40;;;18.40;99.90;18.50;97863.00;;;;4978266;28;87651;-61
2022/07/14 07:46:57;;;;;;;11.70;3.45;;;18.70;99.90;18.80;97863.00;;;;4993186;28;88651;-61
2022/07/14 07:49:24;;;;;;;10.27;3.38;;;18.80;99.90;19.00;97850.00;;;;5000926;28;86929;-62
2022/07/14 07:51:57;;;;;;;9.65;3.40;;;19.10;99.90;19.20;97855.00;;;;4992333;28;87264;-61
2022/07/14 07:54:25;;;;;;;6.43;3.30;;;19.40;99.90;19.50;97857.00;;;;4994080;28;89524;-61
2022/07/14 07:56:51;;;;;;;9.38;3.97;;;19.50;99.90;19.70;97845.00;;;;4994153;28;89385;-62
2022/07/14 07:59:17;;;;;;;7.95;3.55;;;19.90;99.90;20.10;97844.00;;;;4997354;28;87152;-62
2022/07/14 08:01:43;;;;;;;10.82;4.07;;;20.50;99.90;20.70;97840.00;;;;4980868;28;87458;-63
2022/07/14 08:04:09;;;;;;;6.45;3.80;;;21.00;99.90;21.30;97840.00;;;;4995006;28;87778;-62
2022/07/14 08:06:35;;;;;;;7.20;4.05;;;21.20;99.90;21.60;97854.00;;;;4990744;28;88349;-62
2022/07/14 08:09:03;;;;;;;7.47;4.35;;;21.40;99.90;21.80;97844.00;;;;4996274;28;87291;-63
2022/07/14 08:11:29;;;;;;;7.38;4.18;;;21.60;99.90;22.00;97848.00;;;;4990031;28;89068;-61
2022/07/14 08:13:56;;;;;;;10.55;4.57;;;21.70;99.90;22.00;97835.00;;;;4997537;28;87824;-62
2022/07/14 08:16:22;;;;;;;9.30;4.95;;;;;22.20;97849.00;;;;4996762;28;88032;-61
2022/07/14 08:18:49;;;;;;;10.40;4.22;;;21.90;99.90;22.20;97850.00;;;;4995612;28;88102;-62
2022/07/14 08:21:16;;;;;;;8.88;3.72;;;21.90;99.90;22.20;97845.00;;;;4997363;28;87449;-62
2022/07/14 08:23:42;;;;;;;8.63;4.22;;;21.80;99.90;22.00;97834.00;;;;4996150;28;88644;-61
2022/07/14 08:26:08;;;;;;;9.65;4.03;;;21.70;99.90;21.90;97831.00;;;;4996109;28;87205;-61
2022/07/14 08:28:34;;;;;;;10.10;3.78;;;21.70;99.90;21.90;97831.00;;;;4998917;28;87294;-61
2022/07/14 08:31:00;;;;;;;9.18;3.60;;;21.90;99.90;22.10;97834.00;;;;4995424;28;87266;-62
2022/07/14 08:33:26;;;;;;;10.32;3.80;;;22.00;99.90;22.30;97827.00;;;;4997240;28;88046;-62
2022/07/14 08:35:53;;;;;;;12.70;3.70;;;22.20;99.90;22.40;97829.00;;;;4992074;28;87846;-62
2022/07/14 08:38:19;;;;;;;9.93;4.13;;;22.40;99.90;22.50;97824.00;;;;4999205;28;87146;-62
2022/07/14 08:40:45;;;;;;;10.55;3.65;;;22.40;99.90;22.60;97811.00;;;;4996257;28;87773;-62
2022/07/14 08:43:12;;;;;;;9.40;3.28;;;22.50;99.90;22.70;97800.00;;;;4993950;28;88611;-62
2022/07/14 08:45:42;;;;;;;6.80;3.45;;;22.60;99.90;22.80;97796.00;;;;4979614;28;88330;-61
2022/07/14 08:48:10;;;;;;;8.15;3.22;;;22.60;99.90;22.90;97789.00;;;;4994456;28;87090;-61
2022/07/14 08:50:37;;;;;;;12.00;2.95;;;22.70;99.90;22.90;97795.00;;;;4996076;28;87057;-63
2022/07/14 08:53:04;;;;;;;7.40;3.08;;;22.70;99.90;23.00;97785.00;;;;4977546;28;87880;-62
2022/07/14 08:55:31;;;;;;;6.18;3.60;;;22.90;99.90;23.20;97791.00;;;;4995712;28;87439;-61
2022/07/14 08:57:57;;;;;;;6.60;3.60;;;23.30;99.90;23.50;97779.00;;;;4980497;28;87546;-62
2022/07/14 09:00:23;;;;;;;9.65;3.45;;;23.40;99.90;23.80;97774.00;;;;5000574;28;87963;-62
2022/07/14 09:02:53;;;;;;;7.53;3.33;;;23.50;99.90;23.80;97781.00;;;;4998335;28;87482;-62
2022/07/14 09:05:19;;;;;;;7.25;3.40;;;23.50;99.90;23.80;97777.00;;;;4982014;28;88810;-62
2022/07/14 09:07:46;;;;;;;6.57;3.30;;;23.60;99.90;23.90;97776.00;;;;4994430;28;88911;-62
2022/07/14 09:10:19;;;;;;;5.90;2.70;;;23.70;99.90;24.00;97779.00;;;;4980371;28;87165;-61
2022/07/14 09:12:45;;;;;;;7.60;2.63;;;23.70;99.90;24.00;97769.00;;;;4979659;28;87659;-62
2022/07/14 09:18:26;;;;;;;4.32;2.28;;;23.70;99.90;24.10;97759.00;;;;4919694;28;87548;-62
2022/07/14 09:20:55;;;;;;;4.20;1.98;;;23.80;99.90;24.20;97751.00;;;;4901190;28;87975;-62
2022/07/14 09:23:33;;;;;;;4.43;2.17;;;23.90;99.90;24.30;97744.00;;;;4961283;28;87662;-61
2022/07/14 09:26:19;;;;;;;9.27;3.00;;;24.20;99.90;24.50;97751.00;;;;5001493;28;88472;-63
2022/07/14 09:28:49;;;;;;;8.32;2.45;;;24.20;99.90;24.60;97747.00;;;;4999671;28;87822;-64
2022/07/14 09:31:29;;;;;;;9.60;2.63;;;24.10;99.90;24.60;97746.00;;;;4998588;28;87032;-62
2022/07/14 09:34:05;;;;;;;4.78;2.88;;;24.00;99.90;24.40;97748.00;;;;4999451;28;88631;-64
2022/07/14 09:36:35;;;;;;;4.97;2.50;;;23.80;99.90;24.30;97746.00;;;;5001482;28;89417;-65
2022/07/14 09:39:08;;;;;;;4.95;2.78;;;23.90;99.90;24.30;97740.00;;;;5001625;28;87054;-63
2022/07/14 09:41:54;;;;;;;7.68;2.40;;;24.00;99.90;24.40;97737.00;;;;4999096;28;87152;-65
2022/07/14 09:44:22;;;;;;;5.35;2.30;;;23.80;99.90;24.30;97734.00;;;;5000492;28;87608;-64
2022/07/14 09:46:56;;;;;;;6.70;2.70;;;23.70;99.90;24.10;97730.00;;;;4999230;28;87477;-65
2022/07/14 09:49:27;;;;;;;4.57;2.53;;;23.50;99.90;23.90;97747.00;;;;4994681;28;87390;-65
2022/07/14 09:52:00;;;;;;;5.18;2.33;;;23.40;99.90;23.70;97745.00;;;;4977935;28;86331;-65
2022/07/14 09:55:04;;;;;;;4.55;2.58;;;23.20;99.90;23.50;97745.00;;;;4994690;28;88619;-65
2022/07/14 09:57:38;;;;;;;5.70;2.30;;;23.10;99.90;23.40;97739.00;;;;4996560;28;87665;-66
2022/07/14 10:00:11;;;;;;;3.97;2.10;;;23.20;99.90;23.50;97738.00;;;;5000263;28;88510;-64
2022/07/14 10:02:41;;;;;;;5.53;2.40;;;23.30;99.90;23.60;97742.00;;;;4992819;28;87620;-61
2022/07/14 10:05:09;;;;;;;5.72;2.63;;;23.70;99.90;23.90;97748.00;;;;5000976;28;89432;-61
2022/07/14 10:07:39;;;;;;;5.35;2.25;;;23.90;99.90;24.30;97746.00;;;;4995510;28;88327;-61
2022/07/14 10:10:15;;;;;;;5.10;2.17;;;24.20;99.90;24.60;97743.00;;;;4974923;28;87491;-61
2022/07/14 10:12:42;;;;;;;5.30;2.00;;;24.30;99.90;24.70;97739.00;;;;4997744;28;87498;-61
2022/07/14 10:15:13;;;;;;;3.75;1.90;;;24.50;99.90;24.80;97727.00;;;;4977225;28;87551;-62
2022/07/14 10:17:41;;;;;;;3.72;2.15;;;24.50;99.90;24.90;97730.00;;;;5005040;28;87197;-60
2022/07/14 10:20:12;;;;;;;5.90;2.28;;;24.60;99.90;24.90;97726.00;;;;4992000;28;87605;-62
2022/07/14 10:22:40;;;;;;;5.07;1.90;;;24.60;99.90;25.00;97730.00;;;;4995010;28;87378;-63
2022/07/14 10:25:09;;;;;;;4.15;1.73;;;24.80;99.90;25.20;97737.00;;;;4986770;28;88554;-63
2022/07/14 10:27:42;;;;;;;4.82;2.00;;;25.00;99.90;25.40;97730.00;;;;4995483;28;90474;-62
2022/07/14 10:30:10;;;;;;;3.95;1.83;;;24.90;99.90;25.40;97731.00;;;;4965058;28;87040;-63
2022/07/14 10:32:57;;;;;;;1.95;1.40;;;24.80;99.90;25.20;97732.00;;;;4986819;28;87340;-61
2022/07/14 10:35:47;;;;;;;5.82;1.67;;;24.60;99.90;25.10;97741.00;;;;4964211;28;87701;-61
2022/07/14 10:38:57;;;;;;;4.32;2.05;;;24.30;99.90;24.60;97767.00;;;;4975677;28;87426;-62
2022/07/14 10:42:06;;;;;;;4.45;2.00;;;23.70;99.90;24.20;97760.00;;;;4991723;28;87022;-61
2022/07/14 10:44:40;;;;;;;5.00;2.10;;;23.50;99.90;23.90;97774.00;;;;4988872;28;86774;-61
2022/07/14 10:47:27;;;;;;;5.90;2.25;;;23.10;99.90;23.50;97767.00;;;;5008240;28;88691;-64
2022/07/14 10:50:18;;;;;;;5.65;2.28;;;22.40;99.90;22.80;97775.00;;;;4994997;28;87804;-61
2022/07/14 10:53:05;;;;;;;4.28;2.42;;;22.20;99.90;22.40;97765.00;;;;4980451;28;88316;-63
2022/07/14 10:55:31;;;;;;;5.72;2.67;;;21.90;99.90;22.30;97755.00;;;;4978257;28;87150;-63
2022/07/14 10:58:01;;;;;;;4.22;2.60;;;;;22.40;97760.00;;;;5008053;28;87241;-61
2022/07/14 11:01:16;;;;;;;5.10;2.53;;;22.20;99.90;22.70;97750.00;;;;4983692;28;88733;-64
2022/07/14 11:03:35;;;;;;;3.63;2.65;;;22.50;99.90;22.90;97742.00;;;;4979961;28;87156;-63
2022/07/14 11:06:12;;;;;;;5.10;2.90;;;22.70;99.90;23.10;97744.00;;;;4976212;28;88000;-61
2022/07/14 11:08:42;;;;;;;8.20;3.13;;;23.00;99.90;23.50;97743.00;;;;5009063;28;88673;-62
2022/07/14 11:11:21;;;;;;;7.05;3.20;;;23.40;99.90;23.90;97742.00;;;;4994867;28;86659;-62
2022/07/14 11:14:13;;;;;;;4.90;2.70;;;23.50;99.90;24.00;97739.00;;;;4994330;28;87428;-60